sensor_id;sensor_type;location;lat;lon;timestamp;P1;durP1;ratioP1;P2;durP2;ratioP2
65174;SDS011;51761;42.126;24.752;2022-08-21T00:01:23;24.50;;;7.60;;
65174;SDS011;51761;42.126;24.752;2022-08-21T00:03:50;14.85;;;8.32;;
65174;SDS011;51761;42.126;24.752;2022-08-21T00:06:16;15.70;;;6.47;;
65174;SDS011;51761;42.126;24.752;2022-08-21T00:08:42;21.50;;;7.63;;
65174;SDS011;51761;42.126;24.752;2022-08-21T00:11:08;18.50;;;7.78;;
65174;SDS011;51761;42.126;24.752;2022-08-21T00:13:34;21.70;;;7.43;;
65174;SDS011;51761;42.126;24.752;2022-08-21T00:16:00;16.20;;;7.93;;
65174;SDS011;51761;42.126;24.752;2022-08-21T00:18:26;23.48;;;8.43;;
65174;SDS011;51761;42.126;24.752;2022-08-21T00:20:52;15.68;;;6.55;;
65174;SDS011;51761;42.126;24.752;2022-08-21T00:23:18;13.30;;;6.53;;
65174;SDS011;51761;42.126;24.752;2022-08-21T00:25:44;13.23;;;6.10;;
65174;SDS011;51761;42.126;24.752;2022-08-21T00:28:10;16.35;;;6.72;;
65174;SDS011;51761;42.126;24.752;2022-08-21T00:30:36;16.33;;;7.20;;
65174;SDS011;51761;42.126;24.752;2022-08-21T00:33:03;14.38;;;6.72;;
65174;SDS011;51761;42.126;24.752;2022-08-21T00:35:32;16.92;;;6.18;;
65174;SDS011;51761;42.126;24.752;2022-08-21T00:37:59;14.45;;;6.53;;
65174;SDS011;51761;42.126;24.752;2022-08-21T00:40:32;19.60;;;6.28;;
65174;SDS011;51761;42.126;24.752;2022-08-21T00:43:03;15.77;;;7.13;;
65174;SDS011;51761;42.126;24.752;2022-08-21T00:45:29;12.48;;;6.90;;
65174;SDS011;51761;42.126;24.752;2022-08-21T00:47:55;15.25;;;7.60;;
65174;SDS011;51761;42.126;24.752;2022-08-21T00:50:22;16.05;;;7.47;;
65174;SDS011;51761;42.126;24.752;2022-08-21T00:52:49;15.45;;;6.45;;
65174;SDS011;51761;42.126;24.752;2022-08-21T00:55:17;14.95;;;7.03;;
65174;SDS011;51761;42.126;24.752;2022-08-21T00:57:46;13.30;;;7.20;;
65174;SDS011;51761;42.126;24.752;2022-08-21T01:00:16;16.15;;;7.30;;
65174;SDS011;51761;42.126;24.752;2022-08-21T01:02:46;19.98;;;8.07;;
65174;SDS011;51761;42.126;24.752;2022-08-21T01:05:12;16.25;;;8.45;;
65174;SDS011;51761;42.126;24.752;2022-08-21T01:07:38;13.77;;;7.85;;
65174;SDS011;51761;42.126;24.752;2022-08-21T01:10:04;13.90;;;7.28;;
65174;SDS011;51761;42.126;24.752;2022-08-21T01:12:32;20.80;;;9.13;;
65174;SDS011;51761;42.126;24.752;2022-08-21T01:14:59;17.63;;;8.48;;
65174;SDS011;51761;42.126;24.752;2022-08-21T01:17:28;18.85;;;9.07;;
65174;SDS011;51761;42.126;24.752;2022-08-21T01:19:59;17.88;;;8.60;;
65174;SDS011;51761;42.126;24.752;2022-08-21T01:22:26;17.08;;;8.02;;
65174;SDS011;51761;42.126;24.752;2022-08-21T01:24:52;16.52;;;9.40;;
65174;SDS011;51761;42.126;24.752;2022-08-21T01:27:17;29.73;;;9.80;;
65174;SDS011;51761;42.126;24.752;2022-08-21T01:32:16;24.55;;;10.52;;
65174;SDS011;51761;42.126;24.752;2022-08-21T01:34:44;18.42;;;9.15;;
65174;SDS011;51761;42.126;24.752;2022-08-21T01:37:11;27.60;;;12.38;;
65174;SDS011;51761;42.126;24.752;2022-08-21T01:39:38;26.17;;;10.52;;
65174;SDS011;51761;42.126;24.752;2022-08-21T01:42:06;29.50;;;10.38;;
65174;SDS011;51761;42.126;24.752;2022-08-21T01:44:32;23.20;;;10.63;;
65174;SDS011;51761;42.126;24.752;2022-08-21T01:46:58;27.10;;;9.48;;
65174;SDS011;51761;42.126;24.752;2022-08-21T01:49:26;16.98;;;10.43;;
65174;SDS011;51761;42.126;24.752;2022-08-21T01:51:52;17.70;;;10.55;;
65174;SDS011;51761;42.126;24.752;2022-08-21T01:54:17;24.48;;;10.05;;
65174;SDS011;51761;42.126;24.752;2022-08-21T01:56:46;17.98;;;9.02;;
65174;SDS011;51761;42.126;24.752;2022-08-21T01:59:13;15.70;;;8.05;;
65174;SDS011;51761;42.126;24.752;2022-08-21T02:01:39;26.65;;;10.60;;
65174;SDS011;51761;42.126;24.752;2022-08-21T02:04:05;26.90;;;10.38;;
65174;SDS011;51761;42.126;24.752;2022-08-21T02:06:32;21.30;;;9.63;;
65174;SDS011;51761;42.126;24.752;2022-08-21T02:08:57;17.15;;;9.45;;
65174;SDS011;51761;42.126;24.752;2022-08-21T02:11:23;16.35;;;9.32;;
65174;SDS011;51761;42.126;24.752;2022-08-21T02:13:49;16.52;;;9.73;;
65174;SDS011;51761;42.126;24.752;2022-08-21T02:16:15;19.98;;;9.60;;
65174;SDS011;51761;42.126;24.752;2022-08-21T02:18:41;14.55;;;8.85;;
65174;SDS011;51761;42.126;24.752;2022-08-21T02:21:07;18.02;;;8.90;;
65174;SDS011;51761;42.126;24.752;2022-08-21T02:23:33;13.02;;;7.95;;
65174;SDS011;51761;42.126;24.752;2022-08-21T02:26:00;14.30;;;7.55;;
65174;SDS011;51761;42.126;24.752;2022-08-21T02:28:27;19.42;;;8.93;;
65174;SDS011;51761;42.126;24.752;2022-08-21T02:30:53;17.60;;;8.57;;
65174;SDS011;51761;42.126;24.752;2022-08-21T02:33:20;26.00;;;8.68;;
65174;SDS011;51761;42.126;24.752;2022-08-21T02:35:47;21.42;;;8.38;;
65174;SDS011;51761;42.126;24.752;2022-08-21T02:38:17;24.65;;;8.35;;
65174;SDS011;51761;42.126;24.752;2022-08-21T02:40:48;16.40;;;9.10;;
65174;SDS011;51761;42.126;24.752;2022-08-21T02:43:15;12.65;;;7.88;;
65174;SDS011;51761;42.126;24.752;2022-08-21T02:45:42;18.42;;;9.77;;
65174;SDS011;51761;42.126;24.752;2022-08-21T02:48:10;20.15;;;8.30;;
65174;SDS011;51761;42.126;24.752;2022-08-21T02:50:40;19.05;;;8.82;;
65174;SDS011;51761;42.126;24.752;2022-08-21T02:53:08;17.17;;;8.95;;
65174;SDS011;51761;42.126;24.752;2022-08-21T02:55:36;21.85;;;9.65;;
65174;SDS011;51761;42.126;24.752;2022-08-21T02:58:02;44.13;;;11.15;;
65174;SDS011;51761;42.126;24.752;2022-08-21T03:00:30;21.38;;;9.57;;
65174;SDS011;51761;42.126;24.752;2022-08-21T03:02:56;16.95;;;8.60;;
65174;SDS011;51761;42.126;24.752;2022-08-21T03:05:23;17.83;;;7.93;;
65174;SDS011;51761;42.126;24.752;2022-08-21T03:07:50;19.60;;;9.35;;
65174;SDS011;51761;42.126;24.752;2022-08-21T03:10:17;22.55;;;8.55;;
65174;SDS011;51761;42.126;24.752;2022-08-21T03:12:45;14.52;;;9.45;;
65174;SDS011;51761;42.126;24.752;2022-08-21T03:15:11;19.80;;;9.50;;
65174;SDS011;51761;42.126;24.752;2022-08-21T03:17:39;20.13;;;9.57;;
65174;SDS011;51761;42.126;24.752;2022-08-21T03:20:06;20.15;;;9.32;;
65174;SDS011;51761;42.126;24.752;2022-08-21T03:22:33;23.33;;;10.02;;
65174;SDS011;51761;42.126;24.752;2022-08-21T03:24:59;21.65;;;9.95;;
65174;SDS011;51761;42.126;24.752;2022-08-21T03:27:25;26.52;;;10.93;;
65174;SDS011;51761;42.126;24.752;2022-08-21T03:29:52;20.88;;;9.80;;
65174;SDS011;51761;42.126;24.752;2022-08-21T03:32:18;26.95;;;10.07;;
65174;SDS011;51761;42.126;24.752;2022-08-21T03:34:44;23.33;;;9.65;;
65174;SDS011;51761;42.126;24.752;2022-08-21T03:37:10;19.88;;;9.20;;
65174;SDS011;51761;42.126;24.752;2022-08-21T03:39:36;19.15;;;9.80;;
65174;SDS011;51761;42.126;24.752;2022-08-21T03:42:01;22.55;;;10.00;;
65174;SDS011;51761;42.126;24.752;2022-08-21T03:44:27;17.08;;;9.70;;
65174;SDS011;51761;42.126;24.752;2022-08-21T03:46:56;19.48;;;9.90;;
65174;SDS011;51761;42.126;24.752;2022-08-21T03:49:23;22.30;;;10.43;;
65174;SDS011;51761;42.126;24.752;2022-08-21T03:51:49;21.15;;;11.13;;
65174;SDS011;51761;42.126;24.752;2022-08-21T03:54:14;20.55;;;10.05;;
65174;SDS011;51761;42.126;24.752;2022-08-21T03:56:40;24.15;;;9.60;;
65174;SDS011;51761;42.126;24.752;2022-08-21T03:59:06;17.23;;;9.93;;
65174;SDS011;51761;42.126;24.752;2022-08-21T04:01:32;20.25;;;10.55;;
65174;SDS011;51761;42.126;24.752;2022-08-21T04:03:58;27.85;;;11.63;;
65174;SDS011;51761;42.126;24.752;2022-08-21T04:06:24;21.17;;;10.90;;
65174;SDS011;51761;42.126;24.752;2022-08-21T04:08:51;23.40;;;10.95;;
65174;SDS011;51761;42.126;24.752;2022-08-21T04:11:17;21.48;;;10.23;;
65174;SDS011;51761;42.126;24.752;2022-08-21T04:13:43;22.73;;;11.15;;
65174;SDS011;51761;42.126;24.752;2022-08-21T04:16:09;24.13;;;10.68;;
65174;SDS011;51761;42.126;24.752;2022-08-21T04:18:34;25.13;;;10.60;;
65174;SDS011;51761;42.126;24.752;2022-08-21T04:21:00;18.17;;;10.00;;
65174;SDS011;51761;42.126;24.752;2022-08-21T04:23:28;22.80;;;10.75;;
65174;SDS011;51761;42.126;24.752;2022-08-21T04:25:54;32.67;;;15.57;;
65174;SDS011;51761;42.126;24.752;2022-08-21T04:28:21;21.38;;;11.55;;
65174;SDS011;51761;42.126;24.752;2022-08-21T04:30:48;19.00;;;8.73;;
65174;SDS011;51761;42.126;24.752;2022-08-21T04:33:16;29.00;;;10.38;;
65174;SDS011;51761;42.126;24.752;2022-08-21T04:35:43;22.88;;;10.00;;
65174;SDS011;51761;42.126;24.752;2022-08-21T04:38:08;33.70;;;13.63;;
65174;SDS011;51761;42.126;24.752;2022-08-21T04:40:34;28.73;;;12.57;;
65174;SDS011;51761;42.126;24.752;2022-08-21T04:43:02;28.25;;;11.70;;
65174;SDS011;51761;42.126;24.752;2022-08-21T04:45:31;34.90;;;16.85;;
65174;SDS011;51761;42.126;24.752;2022-08-21T04:48:03;35.92;;;19.40;;
65174;SDS011;51761;42.126;24.752;2022-08-21T04:50:34;24.75;;;11.07;;
65174;SDS011;51761;42.126;24.752;2022-08-21T04:53:01;22.92;;;9.57;;
65174;SDS011;51761;42.126;24.752;2022-08-21T04:55:26;27.92;;;11.73;;
65174;SDS011;51761;42.126;24.752;2022-08-21T04:57:53;21.63;;;11.48;;
65174;SDS011;51761;42.126;24.752;2022-08-21T05:00:22;18.88;;;9.35;;
65174;SDS011;51761;42.126;24.752;2022-08-21T05:02:49;29.30;;;10.85;;
65174;SDS011;51761;42.126;24.752;2022-08-21T05:05:19;23.90;;;9.70;;
65174;SDS011;51761;42.126;24.752;2022-08-21T05:07:45;18.60;;;9.55;;
65174;SDS011;51761;42.126;24.752;2022-08-21T05:10:12;27.40;;;10.25;;
65174;SDS011;51761;42.126;24.752;2022-08-21T05:12:39;16.73;;;10.00;;
65174;SDS011;51761;42.126;24.752;2022-08-21T05:15:06;43.35;;;19.13;;
65174;SDS011;51761;42.126;24.752;2022-08-21T05:17:32;32.47;;;16.95;;
65174;SDS011;51761;42.126;24.752;2022-08-21T05:19:58;26.52;;;12.20;;
65174;SDS011;51761;42.126;24.752;2022-08-21T05:22:23;23.63;;;9.82;;
65174;SDS011;51761;42.126;24.752;2022-08-21T05:24:49;19.95;;;10.10;;
65174;SDS011;51761;42.126;24.752;2022-08-21T05:27:16;16.83;;;9.65;;
65174;SDS011;51761;42.126;24.752;2022-08-21T05:29:41;23.70;;;10.63;;
65174;SDS011;51761;42.126;24.752;2022-08-21T05:32:11;20.10;;;10.77;;
65174;SDS011;51761;42.126;24.752;2022-08-21T05:34:37;22.85;;;11.00;;
65174;SDS011;51761;42.126;24.752;2022-08-21T05:37:03;22.92;;;11.20;;
65174;SDS011;51761;42.126;24.752;2022-08-21T05:39:29;24.85;;;10.60;;
65174;SDS011;51761;42.126;24.752;2022-08-21T05:41:55;21.58;;;9.70;;
65174;SDS011;51761;42.126;24.752;2022-08-21T05:44:20;22.65;;;11.18;;
65174;SDS011;51761;42.126;24.752;2022-08-21T05:46:46;19.90;;;9.50;;
65174;SDS011;51761;42.126;24.752;2022-08-21T05:49:11;17.48;;;9.98;;
65174;SDS011;51761;42.126;24.752;2022-08-21T05:51:39;22.67;;;11.50;;
65174;SDS011;51761;42.126;24.752;2022-08-21T05:54:05;17.58;;;9.27;;
65174;SDS011;51761;42.126;24.752;2022-08-21T05:56:31;20.08;;;10.07;;
65174;SDS011;51761;42.126;24.752;2022-08-21T05:58:57;20.40;;;10.07;;
65174;SDS011;51761;42.126;24.752;2022-08-21T06:01:23;22.05;;;10.18;;
65174;SDS011;51761;42.126;24.752;2022-08-21T06:03:48;18.45;;;9.63;;
65174;SDS011;51761;42.126;24.752;2022-08-21T06:06:14;21.33;;;9.30;;
65174;SDS011;51761;42.126;24.752;2022-08-21T06:08:40;17.63;;;10.15;;
65174;SDS011;51761;42.126;24.752;2022-08-21T06:11:07;25.90;;;10.60;;
65174;SDS011;51761;42.126;24.752;2022-08-21T06:13:34;24.35;;;9.98;;
65174;SDS011;51761;42.126;24.752;2022-08-21T06:16:10;22.20;;;11.02;;
65174;SDS011;51761;42.126;24.752;2022-08-21T06:18:38;20.38;;;10.93;;
65174;SDS011;51761;42.126;24.752;2022-08-21T06:21:04;21.67;;;10.85;;
65174;SDS011;51761;42.126;24.752;2022-08-21T06:23:31;18.23;;;11.00;;
65174;SDS011;51761;42.126;24.752;2022-08-21T06:25:57;21.88;;;11.07;;
65174;SDS011;51761;42.126;24.752;2022-08-21T06:28:23;21.58;;;11.00;;
65174;SDS011;51761;42.126;24.752;2022-08-21T06:30:49;21.83;;;11.75;;
65174;SDS011;51761;42.126;24.752;2022-08-21T06:33:14;21.08;;;10.20;;
65174;SDS011;51761;42.126;24.752;2022-08-21T06:35:40;19.23;;;10.32;;
65174;SDS011;51761;42.126;24.752;2022-08-21T06:38:05;14.95;;;8.90;;
65174;SDS011;51761;42.126;24.752;2022-08-21T06:40:31;18.70;;;9.55;;
65174;SDS011;51761;42.126;24.752;2022-08-21T06:42:57;17.92;;;9.27;;
65174;SDS011;51761;42.126;24.752;2022-08-21T06:45:24;22.00;;;8.90;;
65174;SDS011;51761;42.126;24.752;2022-08-21T06:47:49;38.15;;;19.35;;
65174;SDS011;51761;42.126;24.752;2022-08-21T06:50:15;22.27;;;10.38;;
65174;SDS011;51761;42.126;24.752;2022-08-21T06:52:40;13.95;;;7.75;;
65174;SDS011;51761;42.126;24.752;2022-08-21T06:55:07;24.08;;;11.10;;
65174;SDS011;51761;42.126;24.752;2022-08-21T06:57:34;20.30;;;9.35;;
65174;SDS011;51761;42.126;24.752;2022-08-21T07:00:00;23.85;;;9.90;;
65174;SDS011;51761;42.126;24.752;2022-08-21T07:02:26;14.98;;;9.10;;
65174;SDS011;51761;42.126;24.752;2022-08-21T07:04:51;16.10;;;8.75;;
65174;SDS011;51761;42.126;24.752;2022-08-21T07:07:17;20.67;;;8.82;;
65174;SDS011;51761;42.126;24.752;2022-08-21T07:09:43;21.95;;;9.27;;
65174;SDS011;51761;42.126;24.752;2022-08-21T07:12:08;19.42;;;9.65;;
65174;SDS011;51761;42.126;24.752;2022-08-21T07:14:35;21.38;;;9.27;;
65174;SDS011;51761;42.126;24.752;2022-08-21T07:17:01;27.60;;;9.27;;
65174;SDS011;51761;42.126;24.752;2022-08-21T07:19:26;21.40;;;8.68;;
65174;SDS011;51761;42.126;24.752;2022-08-21T07:21:53;20.65;;;9.88;;
65174;SDS011;51761;42.126;24.752;2022-08-21T07:24:23;20.08;;;9.48;;
65174;SDS011;51761;42.126;24.752;2022-08-21T07:26:48;18.15;;;8.90;;
65174;SDS011;51761;42.126;24.752;2022-08-21T07:29:14;26.58;;;8.63;;
65174;SDS011;51761;42.126;24.752;2022-08-21T07:31:39;18.52;;;8.85;;
65174;SDS011;51761;42.126;24.752;2022-08-21T07:34:05;22.48;;;10.32;;
65174;SDS011;51761;42.126;24.752;2022-08-21T07:36:31;15.73;;;8.15;;
65174;SDS011;51761;42.126;24.752;2022-08-21T07:38:56;18.92;;;9.32;;
65174;SDS011;51761;42.126;24.752;2022-08-21T07:41:23;18.02;;;9.15;;
65174;SDS011;51761;42.126;24.752;2022-08-21T07:43:50;20.30;;;8.55;;
65174;SDS011;51761;42.126;24.752;2022-08-21T07:46:16;14.27;;;8.10;;
65174;SDS011;51761;42.126;24.752;2022-08-21T07:48:42;14.52;;;8.65;;
65174;SDS011;51761;42.126;24.752;2022-08-21T07:51:09;18.77;;;9.50;;
65174;SDS011;51761;42.126;24.752;2022-08-21T07:53:37;18.95;;;9.52;;
65174;SDS011;51761;42.126;24.752;2022-08-21T07:56:04;20.27;;;9.77;;
65174;SDS011;51761;42.126;24.752;2022-08-21T07:58:31;20.48;;;9.38;;
65174;SDS011;51761;42.126;24.752;2022-08-21T08:00:57;21.35;;;9.18;;
65174;SDS011;51761;42.126;24.752;2022-08-21T08:03:24;18.17;;;8.85;;
65174;SDS011;51761;42.126;24.752;2022-08-21T08:05:49;22.13;;;10.52;;
65174;SDS011;51761;42.126;24.752;2022-08-21T08:08:15;17.80;;;9.48;;
65174;SDS011;51761;42.126;24.752;2022-08-21T08:10:42;16.08;;;8.88;;
65174;SDS011;51761;42.126;24.752;2022-08-21T08:13:08;21.52;;;9.00;;
65174;SDS011;51761;42.126;24.752;2022-08-21T08:15:35;29.08;;;15.75;;
65174;SDS011;51761;42.126;24.752;2022-08-21T08:18:01;24.75;;;12.88;;
65174;SDS011;51761;42.126;24.752;2022-08-21T08:20:26;16.15;;;8.52;;
65174;SDS011;51761;42.126;24.752;2022-08-21T08:22:52;13.45;;;7.47;;
65174;SDS011;51761;42.126;24.752;2022-08-21T08:25:20;18.13;;;9.63;;
65174;SDS011;51761;42.126;24.752;2022-08-21T08:27:47;19.17;;;8.75;;
65174;SDS011;51761;42.126;24.752;2022-08-21T08:30:14;20.65;;;8.82;;
65174;SDS011;51761;42.126;24.752;2022-08-21T08:32:42;20.13;;;10.45;;
65174;SDS011;51761;42.126;24.752;2022-08-21T08:35:07;22.15;;;9.93;;
65174;SDS011;51761;42.126;24.752;2022-08-21T08:37:34;20.95;;;9.73;;
65174;SDS011;51761;42.126;24.752;2022-08-21T08:40:03;20.33;;;8.40;;
65174;SDS011;51761;42.126;24.752;2022-08-21T08:42:31;23.25;;;9.82;;
65174;SDS011;51761;42.126;24.752;2022-08-21T08:45:04;20.63;;;10.07;;
65174;SDS011;51761;42.126;24.752;2022-08-21T08:47:32;22.90;;;10.43;;
65174;SDS011;51761;42.126;24.752;2022-08-21T08:50:10;30.20;;;15.10;;
65174;SDS011;51761;42.126;24.752;2022-08-21T08:52:43;20.42;;;9.48;;
65174;SDS011;51761;42.126;24.752;2022-08-21T08:55:55;20.88;;;9.90;;
65174;SDS011;51761;42.126;24.752;2022-08-21T08:58:04;22.63;;;8.68;;
65174;SDS011;51761;42.126;24.752;2022-08-21T09:00:30;15.43;;;8.23;;
65174;SDS011;51761;42.126;24.752;2022-08-21T09:02:57;21.98;;;9.88;;
65174;SDS011;51761;42.126;24.752;2022-08-21T09:05:26;26.02;;;9.95;;
65174;SDS011;51761;42.126;24.752;2022-08-21T09:16:25;22.58;;;9.70;;
65174;SDS011;51761;42.126;24.752;2022-08-21T09:27:14;22.38;;;8.63;;
65174;SDS011;51761;42.126;24.752;2022-08-21T09:29:44;21.98;;;8.00;;
65174;SDS011;51761;42.126;24.752;2022-08-21T09:32:16;23.17;;;9.65;;
65174;SDS011;51761;42.126;24.752;2022-08-21T09:38:11;19.52;;;7.85;;
65174;SDS011;51761;42.126;24.752;2022-08-21T09:45:28;16.85;;;7.88;;
65174;SDS011;51761;42.126;24.752;2022-08-21T09:47:55;15.70;;;8.00;;
65174;SDS011;51761;42.126;24.752;2022-08-21T09:50:22;16.75;;;7.90;;
65174;SDS011;51761;42.126;24.752;2022-08-21T09:52:51;18.63;;;8.07;;
65174;SDS011;51761;42.126;24.752;2022-08-21T09:55:28;16.50;;;7.68;;
65174;SDS011;51761;42.126;24.752;2022-08-21T09:58:16;19.02;;;9.13;;
65174;SDS011;51761;42.126;24.752;2022-08-21T10:00:43;19.35;;;8.93;;
65174;SDS011;51761;42.126;24.752;2022-08-21T10:03:17;19.10;;;8.50;;
65174;SDS011;51761;42.126;24.752;2022-08-21T10:06:21;16.45;;;9.32;;
65174;SDS011;51761;42.126;24.752;2022-08-21T10:08:47;14.63;;;7.63;;
65174;SDS011;51761;42.126;24.752;2022-08-21T10:11:13;19.90;;;8.10;;
65174;SDS011;51761;42.126;24.752;2022-08-21T10:19:02;21.13;;;10.27;;
65174;SDS011;51761;42.126;24.752;2022-08-21T10:21:54;24.58;;;9.43;;
65174;SDS011;51761;42.126;24.752;2022-08-21T10:24:29;17.23;;;10.10;;
65174;SDS011;51761;42.126;24.752;2022-08-21T10:29:55;27.10;;;12.32;;
65174;SDS011;51761;42.126;24.752;2022-08-21T10:32:37;24.88;;;11.10;;
65174;SDS011;51761;42.126;24.752;2022-08-21T10:40:29;26.38;;;10.93;;
65174;SDS011;51761;42.126;24.752;2022-08-21T10:48:44;20.83;;;13.88;;
65174;SDS011;51761;42.126;24.752;2022-08-21T10:51:16;23.05;;;11.65;;
65174;SDS011;51761;42.126;24.752;2022-08-21T10:56:36;26.25;;;11.70;;
65174;SDS011;51761;42.126;24.752;2022-08-21T11:04:13;25.52;;;11.98;;
65174;SDS011;51761;42.126;24.752;2022-08-21T11:06:46;30.92;;;13.77;;
65174;SDS011;51761;42.126;24.752;2022-08-21T11:09:34;24.70;;;11.35;;
65174;SDS011;51761;42.126;24.752;2022-08-21T11:12:03;24.40;;;12.63;;
65174;SDS011;51761;42.126;24.752;2022-08-21T11:17:44;20.15;;;11.82;;
65174;SDS011;51761;42.126;24.752;2022-08-21T11:20:18;28.05;;;12.35;;
65174;SDS011;51761;42.126;24.752;2022-08-21T11:22:56;24.35;;;12.35;;
65174;SDS011;51761;42.126;24.752;2022-08-21T11:25:39;22.98;;;11.70;;
65174;SDS011;51761;42.126;24.752;2022-08-21T11:28:13;22.83;;;11.57;;
65174;SDS011;51761;42.126;24.752;2022-08-21T11:33:31;23.00;;;11.20;;
65174;SDS011;51761;42.126;24.752;2022-08-21T11:41:54;26.27;;;12.52;;
65174;SDS011;51761;42.126;24.752;2022-08-21T11:49:59;26.48;;;14.13;;
65174;SDS011;51761;42.126;24.752;2022-08-21T11:52:38;28.67;;;13.18;;
65174;SDS011;51761;42.126;24.752;2022-08-21T12:00:33;23.25;;;11.85;;
65174;SDS011;51761;42.126;24.752;2022-08-21T12:05:44;27.63;;;11.05;;
65174;SDS011;51761;42.126;24.752;2022-08-21T12:13:38;27.23;;;12.80;;
65174;SDS011;51761;42.126;24.752;2022-08-21T12:16:07;27.35;;;13.65;;
65174;SDS011;51761;42.126;24.752;2022-08-21T12:18:34;30.95;;;12.95;;
65174;SDS011;51761;42.126;24.752;2022-08-21T12:21:23;25.25;;;13.25;;
65174;SDS011;51761;42.126;24.752;2022-08-21T12:24:02;28.55;;;12.52;;
65174;SDS011;51761;42.126;24.752;2022-08-21T12:29:30;23.23;;;12.80;;
65174;SDS011;51761;42.126;24.752;2022-08-21T12:32:03;20.70;;;11.80;;
65174;SDS011;51761;42.126;24.752;2022-08-21T12:37:04;30.00;;;15.35;;
65174;SDS011;51761;42.126;24.752;2022-08-21T12:39:39;24.58;;;14.85;;
65174;SDS011;51761;42.126;24.752;2022-08-21T12:45:00;22.48;;;12.88;;
65174;SDS011;51761;42.126;24.752;2022-08-21T12:47:34;25.05;;;12.50;;
65174;SDS011;51761;42.126;24.752;2022-08-21T12:50:11;21.75;;;10.55;;
65174;SDS011;51761;42.126;24.752;2022-08-21T12:52:45;17.13;;;10.82;;
65174;SDS011;51761;42.126;24.752;2022-08-21T12:55:25;17.73;;;10.60;;
65174;SDS011;51761;42.126;24.752;2022-08-21T12:57:53;26.63;;;11.88;;
65174;SDS011;51761;42.126;24.752;2022-08-21T13:00:20;21.13;;;10.73;;
65174;SDS011;51761;42.126;24.752;2022-08-21T13:02:49;18.98;;;10.98;;
65174;SDS011;51761;42.126;24.752;2022-08-21T13:05:35;15.98;;;10.00;;
65174;SDS011;51761;42.126;24.752;2022-08-21T13:08:05;21.65;;;10.63;;
65174;SDS011;51761;42.126;24.752;2022-08-21T13:10:33;19.58;;;9.88;;
65174;SDS011;51761;42.126;24.752;2022-08-21T13:13:02;25.13;;;10.75;;
65174;SDS011;51761;42.126;24.752;2022-08-21T13:15:32;24.45;;;9.43;;
65174;SDS011;51761;42.126;24.752;2022-08-21T13:18:00;20.90;;;9.55;;
65174;SDS011;51761;42.126;24.752;2022-08-21T13:20:36;14.57;;;8.40;;
65174;SDS011;51761;42.126;24.752;2022-08-21T13:23:07;18.23;;;8.95;;
65174;SDS011;51761;42.126;24.752;2022-08-21T13:25:45;16.83;;;9.82;;
65174;SDS011;51761;42.126;24.752;2022-08-21T13:28:11;20.60;;;8.82;;
65174;SDS011;51761;42.126;24.752;2022-08-21T13:30:50;19.20;;;8.20;;
65174;SDS011;51761;42.126;24.752;2022-08-21T13:33:18;17.73;;;8.85;;
65174;SDS011;51761;42.126;24.752;2022-08-21T13:36:03;16.13;;;9.68;;
65174;SDS011;51761;42.126;24.752;2022-08-21T13:38:33;17.73;;;8.38;;
65174;SDS011;51761;42.126;24.752;2022-08-21T13:41:10;13.73;;;7.82;;
65174;SDS011;51761;42.126;24.752;2022-08-21T13:43:37;18.85;;;8.65;;
65174;SDS011;51761;42.126;24.752;2022-08-21T13:46:11;14.13;;;7.55;;
65174;SDS011;51761;42.126;24.752;2022-08-21T13:48:40;14.82;;;7.43;;
65174;SDS011;51761;42.126;24.752;2022-08-21T13:51:06;16.27;;;8.63;;
65174;SDS011;51761;42.126;24.752;2022-08-21T13:53:44;13.60;;;6.88;;
65174;SDS011;51761;42.126;24.752;2022-08-21T14:01:54;12.88;;;7.55;;
65174;SDS011;51761;42.126;24.752;2022-08-21T14:04:35;15.50;;;7.72;;
65174;SDS011;51761;42.126;24.752;2022-08-21T14:07:14;17.65;;;7.43;;
65174;SDS011;51761;42.126;24.752;2022-08-21T14:09:43;15.43;;;7.65;;
65174;SDS011;51761;42.126;24.752;2022-08-21T14:12:15;11.50;;;6.88;;
65174;SDS011;51761;42.126;24.752;2022-08-21T14:14:43;18.20;;;8.23;;
65174;SDS011;51761;42.126;24.752;2022-08-21T14:17:10;16.45;;;8.50;;
65174;SDS011;51761;42.126;24.752;2022-08-21T14:19:51;24.33;;;8.05;;
65174;SDS011;51761;42.126;24.752;2022-08-21T14:25:03;14.48;;;7.80;;
65174;SDS011;51761;42.126;24.752;2022-08-21T14:27:36;16.10;;;8.68;;
65174;SDS011;51761;42.126;24.752;2022-08-21T14:30:21;13.05;;;7.15;;
65174;SDS011;51761;42.126;24.752;2022-08-21T14:32:53;11.32;;;6.97;;
65174;SDS011;51761;42.126;24.752;2022-08-21T14:35:19;13.13;;;5.85;;
65174;SDS011;51761;42.126;24.752;2022-08-21T14:37:46;17.58;;;6.70;;
65174;SDS011;51761;42.126;24.752;2022-08-21T14:40:12;11.13;;;6.65;;
65174;SDS011;51761;42.126;24.752;2022-08-21T14:42:38;11.50;;;6.22;;
65174;SDS011;51761;42.126;24.752;2022-08-21T14:45:10;11.30;;;6.28;;
65174;SDS011;51761;42.126;24.752;2022-08-21T14:47:47;16.25;;;6.72;;
65174;SDS011;51761;42.126;24.752;2022-08-21T14:50:13;12.02;;;6.80;;
65174;SDS011;51761;42.126;24.752;2022-08-21T14:52:39;13.90;;;6.82;;
65174;SDS011;51761;42.126;24.752;2022-08-21T14:55:06;12.20;;;6.50;;
65174;SDS011;51761;42.126;24.752;2022-08-21T14:57:35;11.15;;;7.32;;
65174;SDS011;51761;42.126;24.752;2022-08-21T15:00:02;11.38;;;6.80;;
65174;SDS011;51761;42.126;24.752;2022-08-21T15:02:29;9.73;;;6.60;;
65174;SDS011;51761;42.126;24.752;2022-08-21T15:04:55;11.23;;;6.78;;
65174;SDS011;51761;42.126;24.752;2022-08-21T15:07:20;16.45;;;6.72;;
65174;SDS011;51761;42.126;24.752;2022-08-21T15:09:46;11.75;;;6.65;;
65174;SDS011;51761;42.126;24.752;2022-08-21T15:12:11;12.05;;;7.22;;
65174;SDS011;51761;42.126;24.752;2022-08-21T15:14:39;13.82;;;6.18;;
65174;SDS011;51761;42.126;24.752;2022-08-21T15:17:05;18.33;;;8.52;;
65174;SDS011;51761;42.126;24.752;2022-08-21T15:19:32;36.70;;;21.85;;
65174;SDS011;51761;42.126;24.752;2022-08-21T15:21:58;25.02;;;13.13;;
65174;SDS011;51761;42.126;24.752;2022-08-21T15:24:23;19.25;;;7.22;;
65174;SDS011;51761;42.126;24.752;2022-08-21T15:26:49;14.48;;;7.93;;
65174;SDS011;51761;42.126;24.752;2022-08-21T15:29:16;14.55;;;8.77;;
65174;SDS011;51761;42.126;24.752;2022-08-21T15:31:49;14.70;;;8.85;;
65174;SDS011;51761;42.126;24.752;2022-08-21T15:34:18;30.88;;;16.73;;
65174;SDS011;51761;42.126;24.752;2022-08-21T15:36:43;18.08;;;11.15;;
65174;SDS011;51761;42.126;24.752;2022-08-21T15:39:09;21.50;;;11.48;;
65174;SDS011;51761;42.126;24.752;2022-08-21T15:41:34;23.45;;;10.45;;
65174;SDS011;51761;42.126;24.752;2022-08-21T15:44:00;20.88;;;11.65;;
65174;SDS011;51761;42.126;24.752;2022-08-21T15:46:25;19.45;;;9.23;;
65174;SDS011;51761;42.126;24.752;2022-08-21T15:48:51;27.70;;;11.45;;
65174;SDS011;51761;42.126;24.752;2022-08-21T15:51:16;14.38;;;7.13;;
65174;SDS011;51761;42.126;24.752;2022-08-21T15:53:42;11.48;;;6.38;;
65174;SDS011;51761;42.126;24.752;2022-08-21T15:56:11;17.20;;;6.60;;
65174;SDS011;51761;42.126;24.752;2022-08-21T15:58:50;15.02;;;6.82;;
65174;SDS011;51761;42.126;24.752;2022-08-21T16:01:19;18.83;;;8.75;;
65174;SDS011;51761;42.126;24.752;2022-08-21T16:03:47;24.23;;;10.48;;
65174;SDS011;51761;42.126;24.752;2022-08-21T16:06:15;12.30;;;5.78;;